Time;durP1;ratioP1;P1;durP2;ratioP2;P2;SDS_P1;SDS_P2;PMS_P1;PMS_P2;Temp;Humidity;BMP_temperature;BMP_pressure;BME280_temperature;BME280_humidity;BME280_pressure;Samples;Min_cycle;Max_cycle;Signal;HPM_P1;HPM_P2
2022/11/19 00:00:48;;;;;;;9.13;2.45;;;1.80;99.90;;;;;;5117987;27;20031;-69
2022/11/19 00:03:15;;;;;;;5.60;2.10;;;3.00;99.90;;;;;;5117971;27;20047;-69
2022/11/19 00:05:43;;;;;;;3.60;1.50;;;1.70;99.90;;;;;;5136804;27;20482;-68
2022/11/19 00:08:09;;;;;;;2.97;1.35;;;1.70;99.90;;;;;;5136237;27;20055;-68
2022/11/19 00:10:36;;;;;;;3.85;1.55;;;3.00;99.90;;;;;;5136205;27;20071;-69
2022/11/19 00:13:03;;;;;;;2.85;1.58;;;1.70;99.90;;;;;;5117968;27;20054;-69
2022/11/19 00:15:28;;;;;;;4.22;1.83;;;1.70;99.90;;;;;;5136097;27;20082;-69
2022/11/19 00:17:57;;;;;;;2.83;1.75;;;1.60;99.90;;;;;;5136079;27;20043;-69
2022/11/19 00:20:23;;;;;;;4.47;2.00;;;1.60;99.90;;;;;;5118007;27;20039;-69
2022/11/19 00:22:53;;;;;;;3.85;1.88;;;2.70;99.90;;;;;;5135945;27;20070;-69
2022/11/19 00:25:23;;;;;;;3.72;2.15;;;2.80;99.90;;;;;;5135330;27;20057;-69
2022/11/19 00:27:49;;;;;;;4.40;1.98;;;1.50;99.90;;;;;;5118344;27;20047;-69
2022/11/19 00:30:15;;;;;;;4.38;2.00;;;1.50;99.90;;;;;;5100475;27;20051;-68
2022/11/19 00:32:41;;;;;;;3.35;1.83;;;1.40;99.90;;;;;;5135316;27;20051;-69
2022/11/19 00:35:07;;;;;;;4.32;1.98;;;1.30;99.90;;;;;;5117707;27;20047;-69
2022/11/19 00:37:32;;;;;;;3.72;2.10;;;1.50;99.90;;;;;;5117614;27;20057;-69
2022/11/19 00:39:58;;;;;;;3.22;1.88;;;2.10;99.90;;;;;;5117421;27;20043;-69
2022/11/19 00:42:24;;;;;;;3.10;1.98;;;1.60;99.90;;;;;;5135539;27;20047;-69
2022/11/19 00:44:49;;;;;;;4.47;2.28;;;1.90;99.90;;;;;;5100354;27;20047;-68
2022/11/19 00:47:16;;;;;;;3.78;2.10;;;1.40;99.90;;;;;;5113555;28;20055;-69
2022/11/19 00:49:41;;;;;;;5.15;2.30;;;1.40;99.90;;;;;;5114513;28;20441;-69
2022/11/19 00:52:07;;;;;;;4.43;1.90;;;2.70;99.90;;;;;;5113832;28;20048;-68
2022/11/19 00:54:33;;;;;;;3.85;2.50;;;1.50;99.90;;;;;;5112861;28;20517;-69
2022/11/19 00:56:59;;;;;;;3.28;1.98;;;1.10;99.90;;;;;;5096605;28;20039;-69
2022/11/19 00:59:25;;;;;;;4.45;2.35;;;1.30;99.90;;;;;;5114412;28;20047;-69
2022/11/19 01:01:51;;;;;;;3.92;2.20;;;1.90;99.90;;;;;;5114582;28;20042;-69
2022/11/19 01:04:16;;;;;;;3.33;1.85;;;1.40;99.90;;;;;;5114660;28;20503;-68
2022/11/19 01:06:42;;;;;;;3.97;1.75;;;2.10;99.90;;;;;;5114595;28;20043;-69
2022/11/19 01:09:08;;;;;;;3.80;2.28;;;1.50;99.90;;;;;;5114540;28;20054;-68
2022/11/19 01:11:35;;;;;;;5.53;2.72;;;1.50;99.90;;;;;;5114520;28;20040;-68
2022/11/19 01:14:02;;;;;;;3.45;1.85;;;1.30;99.90;;;;;;5114496;28;20044;-68
2022/11/19 01:16:33;;;;;;;4.53;2.60;;;1.50;99.90;;;;;;5114419;28;20044;-69
2022/11/19 01:18:59;;;;;;;4.30;2.25;;;1.30;99.90;;;;;;5114848;28;20126;-69
2022/11/19 01:21:28;;;;;;;3.63;2.03;;;1.40;99.90;;;;;;5113073;28;20036;-69
2022/11/19 01:23:55;;;;;;;4.45;2.28;;;1.90;99.90;;;;;;5113266;28;20047;-69
2022/11/19 01:26:21;;;;;;;3.35;2.17;;;2.00;99.90;;;;;;5112513;28;20048;-68
2022/11/19 01:28:47;;;;;;;3.90;2.30;;;1.60;99.90;;;;;;5114245;28;20047;-68
2022/11/19 01:31:16;;;;;;;4.00;2.38;;;1.20;99.90;;;;;;5114164;27;20495;-69
2022/11/19 01:33:42;;;;;;;4.53;2.33;;;1.20;99.90;;;;;;5113476;28;20051;-69
2022/11/19 01:36:15;;;;;;;2.40;1.85;;;2.20;99.90;;;;;;5114102;28;20039;-69
2022/11/19 01:38:41;;;;;;;3.15;2.28;;;1.60;99.90;;;;;;5113327;28;20104;-69
2022/11/19 01:41:07;;;;;;;4.00;2.65;;;1.20;99.90;;;;;;5113998;28;20036;-69
2022/11/19 01:44:30;;;;;;;5.10;2.58;;;1.10;99.90;;;;;;5113301;28;20047;-69
2022/11/19 01:46:56;;;;;;;5.00;3.03;;;1.00;99.90;;;;;;5030925;28;20059;-68
2022/11/19 01:49:21;;;;;;;5.03;2.50;;;1.20;99.90;;;;;;5014864;28;20136;-68
2022/11/19 01:51:57;;;;;;;4.55;2.80;;;1.80;99.90;;;;;;5067730;28;20052;-69
2022/11/19 01:54:29;;;;;;;4.03;2.53;;;1.00;99.90;;;;;;5092967;28;20043;-68
2022/11/19 01:57:00;;;;;;;5.10;2.78;;;1.30;99.90;;;;;;5092009;28;20107;-69
2022/11/19 01:59:28;;;;;;;4.78;2.70;;;0.90;99.90;;;;;;5093595;28;20039;-69
2022/11/19 02:01:55;;;;;;;4.15;2.80;;;0.90;99.90;;;;;;5093342;28;20044;-68
2022/11/19 02:04:21;;;;;;;5.68;2.85;;;1.90;99.90;;;;;;5092138;28;20036;-68
2022/11/19 02:06:47;;;;;;;4.00;2.33;;;0.80;99.90;;;;;;5092723;28;20093;-68
2022/11/19 02:09:13;;;;;;;6.00;3.08;;;2.00;99.90;;;;;;5093426;28;20044;-69
2022/11/19 02:11:45;;;;;;;4.30;2.65;;;0.80;99.90;;;;;;5093630;28;20454;-69
2022/11/19 02:14:40;;;;;;;5.28;3.22;;;0.80;99.90;;;;;;5092240;28;20052;-68
2022/11/19 02:17:30;;;;;;;3.92;2.83;;;0.90;99.90;;;;;;5093498;28;20044;-69
2022/11/19 02:20:04;;;;;;;4.82;3.33;;;0.70;99.90;;;;;;5092245;28;20048;-69
2022/11/19 02:23:18;;;;;;;6.15;3.03;;;0.80;99.90;;;;;;5092313;28;20122;-69
2022/11/19 02:26:09;;;;;;;4.55;2.60;;;0.80;99.90;;;;;;5050084;28;20115;-69
2022/11/19 02:28:59;;;;;;;5.97;3.47;;;0.50;99.90;;;;;;5034098;28;20060;-69
2022/11/19 02:31:34;;;;;;;5.32;3.17;;;2.30;99.90;;;;;;5053068;28;20050;-68
2022/11/19 02:34:37;;;;;;;5.72;3.00;;;0.70;99.90;;;;;;5094053;28;20123;-68
2022/11/19 02:37:15;;;;;;;4.93;2.65;;;0.50;99.90;;;;;;5091413;28;20064;-69
2022/11/19 02:39:49;;;;;;;4.72;2.88;;;1.50;99.90;;;;;;5092504;28;20059;-69
2022/11/19 02:42:42;;;;;;;4.68;2.90;;;0.80;99.90;;;;;;5091884;28;20044;-69
2022/11/19 02:45:11;;;;;;;4.75;2.75;;;0.50;99.90;;;;;;5092145;28;20502;-69
2022/11/19 02:47:57;;;;;;;8.55;3.28;;;0.70;99.90;;;;;;5129051;28;20083;-69
2022/11/19 02:50:57;;;;;;;5.28;3.42;;;0.30;99.90;;;;;;5134063;28;20043;-69
2022/11/19 02:53:23;;;;;;;5.68;3.50;;;0.60;99.90;;;;;;5133526;28;20063;-69
2022/11/19 02:56:22;;;;;;;4.00;2.72;;;0.40;99.90;;;;;;5136425;27;20061;-69
2022/11/19 03:04:31;;;;;;;4.40;2.70;;;0.90;99.90;;;;;;5122559;27;20415;-68
2022/11/19 03:07:04;;;;;;;5.20;3.00;;;0.60;99.90;;;;;;5137765;27;20456;-69
2022/11/19 03:09:33;;;;;;;4.57;2.83;;;0.80;99.90;;;;;;5119363;27;20047;-69
2022/11/19 03:12:06;;;;;;;3.97;2.83;;;0.40;99.90;;;;;;5118983;27;20465;-68
2022/11/19 03:17:37;;;;;;;5.63;2.97;;;0.30;99.90;;;;;;5137898;27;20150;-69
2022/11/19 03:20:14;;;;;;;4.68;2.95;;;1.50;99.90;;;;;;5119461;27;20121;-68
2022/11/19 03:22:52;;;;;;;5.20;3.17;;;0.40;99.90;;;;;;5119883;27;20051;-69
2022/11/19 03:25:37;;;;;;;4.10;2.80;;;0.20;99.90;;;;;;5136595;27;20073;-69
2022/11/19 03:28:07;;;;;;;5.75;2.63;;;0.30;99.90;;;;;;5119066;27;20400;-68
2022/11/19 03:30:33;;;;;;;4.25;2.55;;;0.50;99.90;;;;;;5119089;27;20440;-68
2022/11/19 03:33:24;;;;;;;4.95;2.83;;;0.50;99.90;;;;;;5118649;27;20043;-69
2022/11/19 03:35:58;;;;;;;4.72;2.78;;;0.40;99.90;;;;;;5104202;27;20098;-69
2022/11/19 03:38:27;;;;;;;;;;;0.20;99.90;;;;;;5137309;27;20047;-68
2022/11/19 03:40:55;;;;;;;3.65;2.58;;;0.30;99.90;;;;;;5118238;27;19919;-69
2022/11/19 03:43:28;;;;;;;3.60;2.63;;;1.00;99.90;;;;;;5136806;27;20092;-69
2022/11/19 03:45:56;;;;;;;3.47;2.40;;;1.10;99.90;;;;;;5136799;27;20437;-69
2022/11/19 03:48:24;;;;;;;6.60;2.85;;;0.60;99.90;;;;;;5101270;27;20441;-69
2022/11/19 03:50:55;;;;;;;3.33;2.33;;;0.80;99.90;;;;;;5118398;27;20049;-69
2022/11/19 03:53:21;;;;;;;3.83;2.30;;;0.10;99.90;;;;;;5136902;27;20046;-68
2022/11/19 03:55:57;;;;;;;6.25;3.28;;;1.10;99.90;;;;;;5117684;27;20039;-69
2022/11/19 03:58:24;;;;;;;5.47;2.53;;;0.30;99.90;;;;;;5118101;27;20056;-68
2022/11/19 04:00:50;;;;;;;3.97;2.30;;;1.10;99.90;;;;;;5100594;27;20574;-69
2022/11/19 04:03:16;;;;;;;4.97;3.10;;;0.20;99.90;;;;;;5136331;27;20131;-68
2022/11/19 04:05:41;;;;;;;4.25;2.45;;;1.10;99.90;;;;;;5117088;28;20130;-69
2022/11/19 04:08:07;;;;;;;4.38;2.60;;;0.20;99.90;;;;;;5136201;27;20047;-69
2022/11/19 04:10:33;;;;;;;4.15;2.70;;;1.20;99.90;;;;;;5118003;27;20107;-69
2022/11/19 04:12:58;;;;;;;5.00;2.85;;;0.00;99.90;;;;;;5100773;27;20039;-69
2022/11/19 04:15:24;;;;;;;4.90;3.10;;;0.20;99.90;;;;;;5117787;27;20047;-69
2022/11/19 04:17:50;;;;;;;5.22;3.03;;;0.30;99.90;;;;;;5117801;27;20047;-69
2022/11/19 04:20:15;;;;;;;5.90;3.50;;;0.40;99.90;;;;;;5135883;27;20042;-69
2022/11/19 04:22:41;;;;;;;4.43;2.95;;;0.30;99.90;;;;;;5117878;27;20114;-69
2022/11/19 04:25:07;;;;;;;4.53;2.67;;;1.30;99.90;;;;;;5117016;27;20051;-69
2022/11/19 04:27:33;;;;;;;4.55;2.70;;;0.30;99.90;;;;;;5136017;27;20078;-69
2022/11/19 04:29:59;;;;;;;5.47;3.30;;;0.20;99.90;;;;;;5117542;27;20527;-69
2022/11/19 04:32:24;;;;;;;4.70;2.78;;;0.80;99.90;;;;;;5101058;27;20050;-69
2022/11/19 04:34:50;;;;;;;5.28;3.38;;;0.00;99.90;;;;;;5117530;27;20082;-69
2022/11/19 04:37:16;;;;;;;5.35;2.33;;;0.50;99.90;;;;;;5135673;27;20047;-69
2022/11/19 04:39:41;;;;;;;6.22;3.53;;;0.50;99.90;;;;;;5136160;27;20101;-69
2022/11/19 04:42:07;;;;;;;5.07;2.80;;;0.00;99.90;;;;;;5135600;27;20047;-68
2022/11/19 04:44:33;;;;;;;5.60;2.75;;;1.10;99.90;;;;;;5117417;27;20043;-69
2022/11/19 04:46:59;;;;;;;5.35;2.28;;;0.10;99.90;;;;;;5135485;27;20360;-68
2022/11/19 04:49:25;;;;;;;4.53;2.63;;;1.00;99.90;;;;;;5135452;27;20054;-69
2022/11/19 04:51:50;;;;;;;4.63;2.83;;;0.70;99.90;;;;;;5135393;27;20088;-69
2022/11/19 04:54:16;;;;;;;4.78;2.85;;;0.00;99.90;;;;;;5117371;27;20428;-69
2022/11/19 04:56:42;;;;;;;5.88;3.42;;;1.50;99.90;;;;;;5134827;27;20039;-69
2022/11/19 04:59:07;;;;;;;4.50;2.80;;;0.80;99.90;;;;;;5116945;27;20510;-68
2022/11/19 05:01:33;;;;;;;3.72;2.78;;;0.00;99.90;;;;;;5099936;27;20387;-69
2022/11/19 05:03:59;;;;;;;4.53;2.80;;;0.60;99.90;;;;;;5135212;27;20047;-69
2022/11/19 05:06:25;;;;;;;5.38;3.30;;;0.20;99.90;;;;;;5135139;27;20417;-69
2022/11/19 05:08:50;;;;;;;3.90;2.75;;;-0.10;99.90;;;;;;5099966;27;20050;-69
2022/11/19 05:11:16;;;;;;;5.38;3.40;;;0.20;99.90;;;;;;5116904;27;20066;-69
2022/11/19 05:13:41;;;;;;;6.00;3.53;;;-0.10;99.90;;;;;;5117035;27;20078;-69
2022/11/19 05:16:07;;;;;;;7.50;3.65;;;0.10;99.90;;;;;;5134985;27;20058;-69
2022/11/19 05:18:33;;;;;;;5.72;2.90;;;-0.10;99.90;;;;;;5116569;27;20047;-69
2022/11/19 05:20:59;;;;;;;4.65;2.95;;;-0.10;99.90;;;;;;5134898;27;20360;-69
2022/11/19 05:23:25;;;;;;;4.70;3.17;;;0.90;99.90;;;;;;5116617;27;20039;-69
2022/11/19 05:25:51;;;;;;;4.93;3.20;;;-0.20;99.90;;;;;;5134225;27;20039;-69
2022/11/19 05:28:16;;;;;;;6.50;3.88;;;0.10;99.90;;;;;;5134880;27;20047;-69
2022/11/19 05:30:42;;;;;;;5.18;3.08;;;-0.30;99.90;;;;;;5134490;27;20100;-69
2022/11/19 05:33:08;;;;;;;4.80;2.42;;;-0.40;99.90;;;;;;5134727;27;20046;-69
2022/11/19 05:35:34;;;;;;;6.55;3.35;;;0.20;99.90;;;;;;5099530;27;20089;-69
2022/11/19 05:38:00;;;;;;;4.70;3.25;;;0.20;99.90;;;;;;5099902;27;20047;-69
2022/11/19 05:40:25;;;;;;;6.30;3.40;;;-0.30;99.90;;;;;;5116488;27;20475;-69
2022/11/19 05:42:51;;;;;;;4.32;3.13;;;0.10;99.90;;;;;;5116753;27;20058;-69
2022/11/19 05:45:17;;;;;;;5.03;3.42;;;1.40;99.90;;;;;;5099112;27;20065;-69
2022/11/19 05:47:43;;;;;;;5.75;3.60;;;0.50;99.90;;;;;;5134019;27;20043;-69
2022/11/19 05:50:09;;;;;;;3.83;2.80;;;0.30;99.90;;;;;;5099479;28;20084;-69
2022/11/19 05:52:34;;;;;;;5.65;3.05;;;0.50;99.90;;;;;;5065649;27;20402;-68
2022/11/19 05:55:00;;;;;;;5.50;3.20;;;-0.20;99.90;;;;;;5115582;28;20046;-69
2022/11/19 05:57:26;;;;;;;5.60;3.42;;;0.10;99.90;;;;;;5116144;28;20131;-69
2022/11/19 05:59:52;;;;;;;5.65;3.25;;;-0.50;99.90;;;;;;5099292;28;20134;-69
2022/11/19 06:02:17;;;;;;;5.43;3.17;;;-0.30;99.90;;;;;;5134356;28;20390;-69
2022/11/19 06:04:43;;;;;;;7.85;2.95;;;-0.40;99.90;;;;;;5116120;28;20043;-69
2022/11/19 06:07:09;;;;;;;4.00;2.33;;;-0.30;99.90;;;;;;5134483;28;20436;-69
2022/11/19 06:09:34;;;;;;;5.13;2.70;;;-0.20;99.90;;;;;;5115987;28;20051;-69
2022/11/19 06:12:00;;;;;;;5.00;3.50;;;0.00;99.90;;;;;;5134182;28;20050;-69
2022/11/19 06:14:26;;;;;;;5.30;2.90;;;-0.10;99.90;;;;;;5099881;28;20389;-69
2022/11/19 06:16:58;;;;;;;7.35;3.00;;;-0.30;99.90;;;;;;5134277;28;20043;-69
2022/11/19 06:19:24;;;;;;;6.28;2.95;;;-0.30;99.90;;;;;;5116411;28;20051;-68
2022/11/19 06:21:51;;;;;;;5.68;3.40;;;-0.30;99.90;;;;;;5115894;28;20039;-68
2022/11/19 06:24:17;;;;;;;5.43;2.85;;;0.00;99.90;;;;;;5134385;27;20038;-69
2022/11/19 06:26:43;;;;;;;5.22;3.55;;;0.90;99.90;;;;;;5154520;27;20089;-69
2022/11/19 06:29:11;;;;;;;5.63;3.08;;;-0.50;99.90;;;;;;5155444;27;20413;-69
2022/11/19 06:31:37;;;;;;;5.18;3.13;;;-0.10;99.90;;;;;;5140644;27;20047;-69
2022/11/19 06:34:03;;;;;;;6.65;3.38;;;-0.20;99.90;;;;;;5140562;27;20042;-69
2022/11/19 06:36:28;;;;;;;5.43;3.17;;;0.50;99.90;;;;;;5140324;27;20053;-69
2022/11/19 06:38:54;;;;;;;5.75;3.60;;;-0.20;99.90;;;;;;5158765;27;20058;-69
2022/11/19 06:41:20;;;;;;;4.55;3.20;;;-0.20;99.90;;;;;;5158609;27;20062;-70
2022/11/19 06:43:46;;;;;;;4.82;3.17;;;1.00;99.90;;;;;;5159197;27;20068;-69
2022/11/19 06:46:12;;;;;;;6.13;3.42;;;-0.30;99.90;;;;;;5158324;27;20145;-69
2022/11/19 06:48:38;;;;;;;6.05;3.65;;;-0.20;99.90;;;;;;5123203;27;20058;-69
2022/11/19 06:51:04;;;;;;;5.65;3.03;;;-0.50;99.90;;;;;;5158601;27;20039;-68
2022/11/19 06:53:30;;;;;;;5.57;3.08;;;-0.30;99.90;;;;;;5139640;27;20478;-69
2022/11/19 06:55:57;;;;;;;5.35;3.42;;;0.60;99.90;;;;;;5122166;27;20138;-69
2022/11/19 06:58:23;;;;;;;5.85;3.85;;;-0.40;99.90;;;;;;5123110;27;20058;-69
2022/11/19 07:00:49;;;;;;;6.68;3.53;;;-0.30;99.90;;;;;;5158520;27;20095;-68
2022/11/19 07:03:15;;;;;;;5.88;3.30;;;-0.20;99.90;;;;;;5158299;27;20038;-68
2022/11/19 07:05:41;;;;;;;5.18;3.53;;;-0.40;99.90;;;;;;5158322;27;20141;-68
2022/11/19 07:08:07;;;;;;;5.85;3.40;;;-0.20;99.90;;;;;;5105808;27;20459;-69
2022/11/19 07:10:32;;;;;;;6.97;3.08;;;-0.40;99.90;;;;;;5139797;27;20074;-69
2022/11/19 07:12:59;;;;;;;5.22;3.70;;;-0.20;99.90;;;;;;5158327;27;20043;-69
2022/11/19 07:15:24;;;;;;;6.80;3.72;;;0.30;99.90;;;;;;5139834;27;20062;-69
2022/11/19 07:17:50;;;;;;;4.95;3.67;;;-0.30;99.90;;;;;;5139749;27;20047;-69
2022/11/19 07:20:16;;;;;;;5.78;3.40;;;-0.20;99.90;;;;;;5139772;27;20035;-68
2022/11/19 07:22:42;;;;;;;6.47;3.40;;;-0.20;99.90;;;;;;5139424;27;20038;-68
2022/11/19 07:25:12;;;;;;;5.88;3.50;;;0.10;99.90;;;;;;5138844;27;20045;-69
2022/11/19 07:27:47;;;;;;;5.60;3.30;;;0.80;99.90;;;;;;5122702;27;20428;-69
2022/11/19 07:30:14;;;;;;;5.38;3.50;;;0.50;99.90;;;;;;5139450;27;20043;-68
2022/11/19 07:32:40;;;;;;;7.15;3.97;;;-0.30;99.90;;;;;;5139357;27;20078;-69
2022/11/19 07:35:08;;;;;;;6.43;3.60;;;-0.30;99.90;;;;;;5139427;27;20478;-69
2022/11/19 07:37:34;;;;;;;5.70;3.58;;;-0.40;99.90;;;;;;5122143;27;20039;-68
2022/11/19 07:40:01;;;;;;;6.97;3.47;;;-0.20;99.90;;;;;;5157161;27;20038;-69
2022/11/19 07:45:11;;;;;;;6.00;3.85;;;0.90;99.90;;;;;;5157778;27;20046;-68
2022/11/19 07:47:36;;;;;;;5.53;3.05;;;-0.10;99.90;;;;;;5138563;27;20418;-69
2022/11/19 07:50:03;;;;;;;5.60;3.70;;;0.90;99.90;;;;;;5139010;27;20405;-69
2022/11/19 07:52:29;;;;;;;5.65;3.50;;;-0.30;99.90;;;;;;5139040;27;20045;-69
2022/11/19 07:54:55;;;;;;;5.53;3.60;;;0.50;99.90;;;;;;5105001;27;20099;-69
2022/11/19 07:57:21;;;;;;;6.50;3.65;;;0.30;99.90;;;;;;5156827;27;20405;-69
2022/11/19 07:59:47;;;;;;;6.55;4.32;;;-0.20;99.90;;;;;;5157190;27;20088;-69
2022/11/19 08:02:13;;;;;;;6.57;3.75;;;0.80;99.90;;;;;;5138633;27;20045;-69
2022/11/19 08:04:38;;;;;;;6.97;3.80;;;0.70;99.90;;;;;;5157256;27;20054;-69
2022/11/19 08:07:04;;;;;;;5.25;3.40;;;-0.20;99.90;;;;;;5138791;27;20046;-69
2022/11/19 08:09:30;;;;;;;6.82;3.80;;;-0.10;99.90;;;;;;5138620;27;20088;-69
2022/11/19 08:11:55;;;;;;;6.28;3.97;;;-0.40;99.90;;;;;;5138661;27;20046;-69
2022/11/19 08:14:21;;;;;;;5.30;3.10;;;0.00;99.90;;;;;;5139249;27;20054;-69
2022/11/19 08:19:31;;;;;;;6.10;4.10;;;0.00;99.90;;;;;;5138570;27;20046;-69
2022/11/19 08:21:57;;;;;;;5.60;3.95;;;0.00;99.90;;;;;;5138273;27;20039;-69
2022/11/19 08:24:22;;;;;;;10.18;4.70;;;-0.10;99.90;;;;;;5156770;27;20130;-69
2022/11/19 08:26:48;;;;;;;6.25;4.03;;;0.00;99.90;;;;;;5137764;27;20458;-69
2022/11/19 08:29:16;;;;;;;5.85;3.30;;;0.10;99.90;;;;;;5156639;27;20038;-69
2022/11/19 08:31:44;;;;;;;7.50;4.63;;;-0.10;99.90;;;;;;5138080;27;20050;-69
2022/11/19 08:34:10;;;;;;;6.32;3.78;;;0.10;99.90;;;;;;5156561;27;20120;-69
2022/11/19 08:36:35;;;;;;;6.32;4.07;;;0.00;99.90;;;;;;5138310;27;20047;-69
2022/11/19 08:39:02;;;;;;;7.10;4.15;;;0.30;99.90;;;;;;5121119;27;20075;-69
2022/11/19 08:44:13;;;;;;;6.88;3.70;;;0.40;99.90;;;;;;5156266;27;20072;-69
2022/11/19 08:46:40;;;;;;;11.88;6.78;;;0.20;99.90;;;;;;5120528;27;20065;-69
2022/11/19 08:49:06;;;;;;;5.90;3.83;;;0.70;99.90;;;;;;5138369;27;20051;-69
2022/11/19 08:51:32;;;;;;;8.27;4.43;;;0.00;99.90;;;;;;5137679;27;20047;-69
2022/11/19 08:53:58;;;;;;;9.63;5.18;;;0.40;99.90;;;;;;5155765;27;20039;-68
2022/11/19 08:56:23;;;;;;;6.50;3.97;;;1.30;99.90;;;;;;5155327;27;20103;-68
2022/11/19 08:58:50;;;;;;;7.57;3.85;;;0.30;99.90;;;;;;5121048;27;20096;-68
2022/11/19 09:01:17;;;;;;;6.90;3.72;;;0.20;99.90;;;;;;5156080;27;20387;-67
2022/11/19 09:03:43;;;;;;;7.07;4.38;;;1.30;99.90;;;;;;5153597;27;20053;-69
2022/11/19 09:06:09;;;;;;;6.75;3.90;;;0.90;99.90;;;;;;5100615;27;20089;-68
2022/11/19 09:08:35;;;;;;;7.13;4.07;;;0.40;99.90;;;;;;5135033;27;20493;-67
2022/11/19 09:11:06;;;;;;;6.00;3.22;;;1.20;99.90;;;;;;5135356;27;20046;-67
2022/11/19 09:13:32;;;;;;;7.97;4.15;;;0.50;99.90;;;;;;5117255;27;20372;-68
2022/11/19 09:15:58;;;;;;;9.02;4.38;;;1.50;99.90;;;;;;5135190;27;20051;-68
2022/11/19 09:18:24;;;;;;;5.85;3.92;;;1.00;99.90;;;;;;5116895;27;20383;-69
2022/11/19 09:20:56;;;;;;;9.63;4.53;;;0.40;99.90;;;;;;5100212;27;20039;-68
2022/11/19 09:23:24;;;;;;;10.13;4.77;;;1.20;99.90;;;;;;5099832;27;20039;-69
2022/11/19 09:26:03;;;;;;;14.63;5.85;;;0.50;99.90;;;;;;5134446;27;20551;-68
2022/11/19 09:28:30;;;;;;;5.63;3.30;;;0.60;99.90;;;;;;5116784;27;20043;-68
2022/11/19 09:30:56;;;;;;;6.95;3.85;;;0.70;99.90;;;;;;5135077;27;20046;-69
2022/11/19 09:33:23;;;;;;;4.97;3.08;;;0.60;99.90;;;;;;5116847;27;20107;-68
2022/11/19 09:35:48;;;;;;;6.43;3.40;;;1.50;99.90;;;;;;5116420;27;20036;-69
2022/11/19 09:38:14;;;;;;;5.90;3.67;;;0.50;99.90;;;;;;5134802;27;20047;-69
2022/11/19 09:40:44;;;;;;;5.57;3.42;;;1.30;99.90;;;;;;5099580;27;20475;-68
2022/11/19 09:43:23;;;;;;;7.40;4.05;;;0.80;99.90;;;;;;5134848;27;20043;-68
2022/11/19 09:46:31;;;;;;;6.30;3.22;;;0.90;99.90;;;;;;5117090;27;20576;-69
2022/11/19 09:49:03;;;;;;;5.70;3.60;;;0.70;99.90;;;;;;5134681;27;20051;-67
2022/11/19 09:51:32;;;;;;;5.95;3.50;;;0.70;99.90;;;;;;5099849;27;20087;-67
2022/11/19 09:54:15;;;;;;;5.45;3.45;;;0.90;99.90;;;;;;5116544;28;20111;-68
2022/11/19 09:56:44;;;;;;;6.13;4.13;;;0.70;99.90;;;;;;5134238;27;20051;-69
2022/11/19 09:59:24;;;;;;;6.05;3.30;;;1.10;99.90;;;;;;5116727;28;20049;-69
2022/11/19 10:01:50;;;;;;;6.53;3.28;;;0.90;99.90;;;;;;5116151;28;20481;-69
2022/11/19 10:04:21;;;;;;;7.88;3.47;;;1.20;99.90;;;;;;5125887;27;20050;-69
2022/11/19 10:06:53;;;;;;;6.00;4.03;;;1.40;99.90;;;;;;5149138;27;20052;-69
2022/11/19 10:10:03;;;;;;;4.97;3.00;;;1.20;99.90;;;;;;5129562;27;20131;-70
2022/11/19 10:12:56;;;;;;;7.65;3.75;;;0.90;99.90;;;;;;5074605;28;20400;-70
2022/11/19 10:15:56;;;;;;;4.88;3.50;;;1.00;99.90;;;;;;5153956;27;20047;-70
2022/11/19 10:18:36;;;;;;;5.65;3.42;;;1.10;99.90;;;;;;5102403;27;20055;-69
2022/11/19 10:21:30;;;;;;;4.55;3.15;;;1.20;99.90;;;;;;5125093;27;20050;-69
2022/11/19 10:24:18;;;;;;;6.22;3.20;;;1.30;99.90;;;;;;5140600;27;20092;-70
2022/11/19 10:26:53;;;;;;;4.97;2.50;;;1.90;99.90;;;;;;5129797;27;20039;-70
2022/11/19 10:29:22;;;;;;;4.95;3.03;;;1.30;99.90;;;;;;5116767;27;20432;-70
2022/11/19 10:31:50;;;;;;;5.20;2.80;;;1.60;99.90;;;;;;5148237;27;20122;-70
2022/11/19 10:34:29;;;;;;;6.70;3.10;;;1.20;99.90;;;;;;5149309;27;20046;-70
2022/11/19 10:37:09;;;;;;;4.45;2.30;;;1.70;99.90;;;;;;5113712;27;20057;-70
2022/11/19 10:39:39;;;;;;;5.38;3.20;;;2.50;99.90;;;;;;5149179;27;20110;-71
2022/11/19 10:42:29;;;;;;;4.30;2.70;;;2.00;99.90;;;;;;5147940;27;20107;-70
2022/11/19 10:44:59;;;;;;;6.00;2.22;;;1.50;99.90;;;;;;5130776;27;20057;-70
2022/11/19 10:47:41;;;;;;;3.95;2.45;;;2.70;99.90;;;;;;5128915;27;20055;-71
2022/11/19 10:50:15;;;;;;;5.40;2.92;;;1.60;99.90;;;;;;5148614;27;20051;-70
2022/11/19 10:52:45;;;;;;;6.20;2.70;;;2.60;99.90;;;;;;5111485;27;20571;-70
2022/11/19 10:55:14;;;;;;;5.35;2.83;;;1.60;99.90;;;;;;5131071;27;20043;-70
2022/11/19 10:57:40;;;;;;;3.97;2.50;;;1.60;99.90;;;;;;5127974;27;20417;-70
2022/11/19 11:00:06;;;;;;;3.88;2.80;;;2.00;99.90;;;;;;5130928;27;20047;-70
2022/11/19 11:02:38;;;;;;;5.32;3.08;;;1.70;99.90;;;;;;5128047;27;20047;-69
2022/11/19 11:05:14;;;;;;;4.68;2.63;;;2.00;99.90;;;;;;5144222;27;20088;-70
2022/11/19 11:07:59;;;;;;;3.88;2.53;;;1.90;99.90;;;;;;5128136;27;20031;-70
2022/11/19 11:10:40;;;;;;;4.65;2.50;;;1.90;99.90;;;;;;5130344;27;20047;-70
2022/11/19 11:16:26;;;;;;;5.75;3.00;;;2.00;99.90;;;;;;5129406;27;20074;-70
2022/11/19 11:18:55;;;;;;;4.03;2.10;;;2.10;99.90;;;;;;5129747;27;20091;-70
2022/11/19 11:21:28;;;;;;;6.55;3.00;;;2.30;99.90;;;;;;5110487;27;20495;-70
2022/11/19 11:23:55;;;;;;;4.28;2.40;;;2.10;99.90;;;;;;5127513;27;20051;-71
2022/11/19 11:26:24;;;;;;;4.55;2.25;;;2.10;99.90;;;;;;5148390;27;20050;-70
2022/11/19 11:29:12;;;;;;;3.83;2.20;;;2.10;99.90;;;;;;5128300;27;20047;-70
2022/11/19 11:31:46;;;;;;;3.88;2.47;;;2.60;99.90;;;;;;5145405;27;20049;-70
2022/11/19 11:34:34;;;;;;;3.42;2.08;;;2.70;99.90;;;;;;5112043;27;20143;-70
2022/11/19 11:37:02;;;;;;;3.10;2.00;;;2.40;99.90;;;;;;5127814;27;20043;-70
2022/11/19 11:39:36;;;;;;;3.15;2.13;;;2.30;99.90;;;;;;5110988;27;20091;-70
2022/11/19 11:42:09;;;;;;;4.38;1.88;;;2.60;99.90;;;;;;5146022;27;20507;-70
2022/11/19 11:44:37;;;;;;;;;;;2.50;99.90;;;;;;5127326;27;20050;-70
2022/11/19 11:47:15;;;;;;;4.22;2.35;;;2.80;99.90;;;;;;5148190;27;20010;-70
2022/11/19 11:49:56;;;;;;;4.32;2.20;;;2.80;99.90;;;;;;5145695;27;20136;-70
2022/11/19 11:52:35;;;;;;;4.38;2.10;;;3.70;99.90;;;;;;5128005;27;20046;-70
2022/11/19 11:55:12;;;;;;;4.75;2.33;;;2.60;99.90;;;;;;5147653;27;20064;-71
2022/11/19 11:58:02;;;;;;;4.95;2.60;;;2.70;99.90;;;;;;5146956;27;20481;-71
2022/11/19 12:00:35;;;;;;;32.08;15.45;;;2.60;99.90;;;;;;5147573;27;20038;-70
2022/11/19 12:03:08;;;;;;;6.57;2.47;;;2.70;99.90;;;;;;5127469;27;20042;-70
2022/11/19 12:05:54;;;;;;;4.53;2.38;;;2.80;99.90;;;;;;5147276;27;20076;-70
2022/11/19 12:08:55;;;;;;;3.85;2.50;;;2.80;99.90;;;;;;5135126;27;20050;-71
2022/11/19 12:11:56;;;;;;;4.43;2.38;;;2.90;99.90;;;;;;5157613;27;20449;-71
2022/11/19 12:14:41;;;;;;;4.13;2.30;;;3.10;99.90;;;;;;5138764;27;20053;-71
2022/11/19 12:17:09;;;;;;;5.03;2.20;;;2.90;99.90;;;;;;5138868;27;20043;-71
2022/11/19 12:19:46;;;;;;;3.88;2.20;;;3.70;99.90;;;;;;5138786;27;20035;-71
2022/11/19 12:22:24;;;;;;;4.50;2.63;;;4.00;99.90;;;;;;5110999;27;20049;-71
2022/11/19 12:25:20;;;;;;;5.57;2.50;;;3.40;99.90;;;;;;5100864;27;20055;-71
2022/11/19 12:28:02;;;;;;;4.13;2.25;;;3.00;99.90;;;;;;5134484;27;20095;-69
2022/11/19 12:30:51;;;;;;;5.22;2.45;;;3.70;99.90;;;;;;5136226;27;20039;-70
2022/11/19 12:33:38;;;;;;;5.03;2.50;;;3.00;99.90;;;;;;5117956;27;20062;-70
2022/11/19 12:36:30;;;;;;;4.72;2.28;;;3.00;99.90;;;;;;5140551;27;20359;-70
2022/11/19 12:39:19;;;;;;;4.57;2.80;;;3.10;99.90;;;;;;5156701;27;20424;-70
2022/11/19 12:42:00;;;;;;;3.67;1.98;;;3.00;99.90;;;;;;5156112;27;20043;-70
2022/11/19 12:44:35;;;;;;;4.47;2.65;;;3.10;99.90;;;;;;5150187;27;20104;-70
2022/11/19 12:47:23;;;;;;;4.68;2.50;;;4.00;99.90;;;;;;5143531;27;20051;-70
2022/11/19 12:50:10;;;;;;;5.95;2.63;;;3.10;99.90;;;;;;5145756;27;20039;-69
2022/11/19 12:52:50;;;;;;;4.53;2.17;;;3.10;99.90;;;;;;5146112;27;20050;-70
2022/11/19 12:55:19;;;;;;;4.50;2.55;;;3.20;99.90;;;;;;5146562;27;20042;-70
2022/11/19 12:58:01;;;;;;;4.38;2.58;;;3.00;99.90;;;;;;5145287;27;20103;-70
2022/11/19 13:00:29;;;;;;;5.63;2.55;;;3.20;99.90;;;;;;5143443;27;20043;-71
2022/11/19 13:03:04;;;;;;;5.18;2.47;;;3.10;99.90;;;;;;5125750;27;20505;-70
2022/11/19 13:05:49;;;;;;;4.00;2.13;;;3.10;99.90;;;;;;5145510;27;20092;-70
2022/11/19 13:08:14;;;;;;;5.18;2.75;;;3.90;99.90;;;;;;5124973;27;20073;-70
2022/11/19 13:10:51;;;;;;;5.00;2.72;;;3.80;99.90;;;;;;5110864;27;20486;-70
2022/11/19 13:13:24;;;;;;;4.18;1.77;;;3.10;99.90;;;;;;5127661;27;20054;-71
2022/11/19 13:16:13;;;;;;;4.20;2.25;;;3.50;99.90;;;;;;5127133;27;20042;-70
2022/11/19 13:18:41;;;;;;;3.00;2.08;;;3.00;99.90;;;;;;5127563;27;20110;-71
2022/11/19 13:21:16;;;;;;;2.78;1.58;;;3.80;99.90;;;;;;5144678;27;20047;-70
2022/11/19 13:23:45;;;;;;;3.92;2.20;;;3.10;99.90;;;;;;5143874;27;20039;-71
2022/11/19 13:26:30;;;;;;;4.97;2.15;;;4.00;99.90;;;;;;5125622;27;20061;-70
2022/11/19 13:29:21;;;;;;;5.30;1.95;;;3.40;99.90;;;;;;5110274;27;20039;-71
2022/11/19 13:31:54;;;;;;;4.15;2.17;;;3.00;99.90;;;;;;5152134;27;20057;-70
2022/11/19 13:34:37;;;;;;;4.35;2.30;;;3.80;99.90;;;;;;5125449;27;20047;-71
2022/11/19 13:37:17;;;;;;;3.70;1.92;;;3.20;99.90;;;;;;5143932;27;20488;-71